sensor_id;sensor_type;location;lat;lon;timestamp;P1;durP1;ratioP1;P2;durP2;ratioP2
20124;SDS011;10223;50.862;4.360;2023-04-03T00:00:28;13.60;;;7.70;;
20124;SDS011;10223;50.862;4.360;2023-04-03T00:02:56;13.10;;;7.73;;
20124;SDS011;10223;50.862;4.360;2023-04-03T00:05:23;12.80;;;7.40;;
20124;SDS011;10223;50.862;4.360;2023-04-03T00:07:50;12.23;;;7.30;;
20124;SDS011;10223;50.862;4.360;2023-04-03T00:10:17;11.43;;;7.30;;
20124;SDS011;10223;50.862;4.360;2023-04-03T00:12:44;11.10;;;6.67;;
20124;SDS011;10223;50.862;4.360;2023-04-03T00:15:11;13.57;;;7.10;;
20124;SDS011;10223;50.862;4.360;2023-04-03T00:17:38;11.57;;;6.47;;
20124;SDS011;10223;50.862;4.360;2023-04-03T00:20:07;10.47;;;6.70;;
20124;SDS011;10223;50.862;4.360;2023-04-03T00:22:34;9.97;;;6.40;;
20124;SDS011;10223;50.862;4.360;2023-04-03T00:25:01;7.93;;;6.00;;
20124;SDS011;10223;50.862;4.360;2023-04-03T00:27:28;11.10;;;6.87;;
20124;SDS011;10223;50.862;4.360;2023-04-03T00:29:55;12.80;;;6.70;;
20124;SDS011;10223;50.862;4.360;2023-04-03T00:32:22;12.80;;;7.20;;
20124;SDS011;10223;50.862;4.360;2023-04-03T00:34:49;11.53;;;6.37;;
20124;SDS011;10223;50.862;4.360;2023-04-03T00:37:17;13.27;;;6.83;;
20124;SDS011;10223;50.862;4.360;2023-04-03T00:39:44;10.83;;;6.60;;
20124;SDS011;10223;50.862;4.360;2023-04-03T00:42:11;8.97;;;6.33;;
20124;SDS011;10223;50.862;4.360;2023-04-03T00:47:42;11.47;;;6.20;;
20124;SDS011;10223;50.862;4.360;2023-04-03T00:50:09;9.80;;;6.17;;
20124;SDS011;10223;50.862;4.360;2023-04-03T00:52:37;12.63;;;6.80;;
20124;SDS011;10223;50.862;4.360;2023-04-03T00:55:06;11.00;;;5.90;;
20124;SDS011;10223;50.862;4.360;2023-04-03T00:57:35;10.27;;;5.83;;
20124;SDS011;10223;50.862;4.360;2023-04-03T01:00:04;9.17;;;6.10;;
20124;SDS011;10223;50.862;4.360;2023-04-03T01:02:34;9.53;;;6.73;;
20124;SDS011;10223;50.862;4.360;2023-04-03T01:05:01;10.63;;;5.93;;
20124;SDS011;10223;50.862;4.360;2023-04-03T01:07:29;7.87;;;6.03;;
20124;SDS011;10223;50.862;4.360;2023-04-03T01:10:00;9.93;;;6.40;;
20124;SDS011;10223;50.862;4.360;2023-04-03T01:12:29;10.70;;;6.70;;
20124;SDS011;10223;50.862;4.360;2023-04-03T01:14:58;9.97;;;5.90;;
20124;SDS011;10223;50.862;4.360;2023-04-03T01:17:31;10.17;;;5.87;;
20124;SDS011;10223;50.862;4.360;2023-04-03T01:22:59;7.53;;;5.63;;
20124;SDS011;10223;50.862;4.360;2023-04-03T01:25:34;12.83;;;6.27;;
20124;SDS011;10223;50.862;4.360;2023-04-03T01:28:04;11.03;;;5.93;;
20124;SDS011;10223;50.862;4.360;2023-04-03T01:30:33;9.40;;;6.37;;
20124;SDS011;10223;50.862;4.360;2023-04-03T01:33:04;11.03;;;6.33;;
20124;SDS011;10223;50.862;4.360;2023-04-03T01:35:31;8.30;;;6.37;;
20124;SDS011;10223;50.862;4.360;2023-04-03T01:37:58;11.43;;;5.83;;
20124;SDS011;10223;50.862;4.360;2023-04-03T01:40:25;10.23;;;6.30;;
20124;SDS011;10223;50.862;4.360;2023-04-03T01:42:52;9.13;;;6.30;;
20124;SDS011;10223;50.862;4.360;2023-04-03T01:45:19;9.40;;;5.73;;
20124;SDS011;10223;50.862;4.360;2023-04-03T01:47:46;10.97;;;6.60;;
20124;SDS011;10223;50.862;4.360;2023-04-03T01:50:15;12.90;;;6.20;;
20124;SDS011;10223;50.862;4.360;2023-04-03T01:52:41;11.80;;;6.47;;
20124;SDS011;10223;50.862;4.360;2023-04-03T01:55:09;10.77;;;5.63;;
20124;SDS011;10223;50.862;4.360;2023-04-03T01:57:35;9.47;;;6.03;;
20124;SDS011;10223;50.862;4.360;2023-04-03T02:00:03;9.73;;;6.17;;
20124;SDS011;10223;50.862;4.360;2023-04-03T02:02:30;8.97;;;6.30;;
20124;SDS011;10223;50.862;4.360;2023-04-03T02:04:57;11.83;;;6.03;;
20124;SDS011;10223;50.862;4.360;2023-04-03T02:07:26;9.60;;;6.57;;
20124;SDS011;10223;50.862;4.360;2023-04-03T02:09:53;12.57;;;7.37;;
20124;SDS011;10223;50.862;4.360;2023-04-03T02:12:20;11.77;;;6.80;;
20124;SDS011;10223;50.862;4.360;2023-04-03T02:14:47;11.67;;;6.03;;
20124;SDS011;10223;50.862;4.360;2023-04-03T02:17:14;9.53;;;6.50;;
20124;SDS011;10223;50.862;4.360;2023-04-03T02:19:41;13.37;;;6.03;;
20124;SDS011;10223;50.862;4.360;2023-04-03T02:22:08;9.60;;;6.63;;
20124;SDS011;10223;50.862;4.360;2023-04-03T02:24:36;10.60;;;6.40;;
20124;SDS011;10223;50.862;4.360;2023-04-03T02:27:05;9.87;;;6.07;;
20124;SDS011;10223;50.862;4.360;2023-04-03T02:29:32;9.27;;;6.23;;
20124;SDS011;10223;50.862;4.360;2023-04-03T02:31:59;13.40;;;7.23;;
20124;SDS011;10223;50.862;4.360;2023-04-03T02:34:26;10.13;;;6.70;;
20124;SDS011;10223;50.862;4.360;2023-04-03T02:36:53;11.10;;;6.60;;
20124;SDS011;10223;50.862;4.360;2023-04-03T02:39:20;10.07;;;6.50;;
20124;SDS011;10223;50.862;4.360;2023-04-03T02:41:48;10.03;;;6.67;;
20124;SDS011;10223;50.862;4.360;2023-04-03T02:44:16;10.40;;;5.97;;
20124;SDS011;10223;50.862;4.360;2023-04-03T02:46:43;12.90;;;8.17;;
20124;SDS011;10223;50.862;4.360;2023-04-03T02:49:10;10.37;;;6.77;;
20124;SDS011;10223;50.862;4.360;2023-04-03T02:51:37;12.70;;;7.13;;
20124;SDS011;10223;50.862;4.360;2023-04-03T02:54:04;10.23;;;5.93;;
20124;SDS011;10223;50.862;4.360;2023-04-03T02:56:31;11.10;;;7.33;;
20124;SDS011;10223;50.862;4.360;2023-04-03T02:59:00;9.97;;;6.13;;
20124;SDS011;10223;50.862;4.360;2023-04-03T03:01:27;8.53;;;6.30;;
20124;SDS011;10223;50.862;4.360;2023-04-03T03:03:56;11.17;;;6.27;;
20124;SDS011;10223;50.862;4.360;2023-04-03T03:06:23;11.60;;;6.00;;
20124;SDS011;10223;50.862;4.360;2023-04-03T03:08:50;8.70;;;6.20;;
20124;SDS011;10223;50.862;4.360;2023-04-03T03:11:17;11.23;;;6.80;;
20124;SDS011;10223;50.862;4.360;2023-04-03T03:13:44;7.93;;;5.63;;
20124;SDS011;10223;50.862;4.360;2023-04-03T03:16:13;9.33;;;6.37;;
20124;SDS011;10223;50.862;4.360;2023-04-03T03:18:40;9.87;;;6.17;;
20124;SDS011;10223;50.862;4.360;2023-04-03T03:21:08;9.13;;;5.63;;
20124;SDS011;10223;50.862;4.360;2023-04-03T03:23:36;9.17;;;6.00;;
20124;SDS011;10223;50.862;4.360;2023-04-03T03:26:03;11.13;;;5.83;;
20124;SDS011;10223;50.862;4.360;2023-04-03T03:28:32;9.83;;;6.40;;
20124;SDS011;10223;50.862;4.360;2023-04-03T03:30:59;7.40;;;5.60;;
20124;SDS011;10223;50.862;4.360;2023-04-03T03:33:27;9.80;;;6.40;;
20124;SDS011;10223;50.862;4.360;2023-04-03T03:35:55;8.83;;;5.50;;
20124;SDS011;10223;50.862;4.360;2023-04-03T03:38:22;10.50;;;7.20;;
20124;SDS011;10223;50.862;4.360;2023-04-03T03:40:50;12.87;;;7.10;;
20124;SDS011;10223;50.862;4.360;2023-04-03T03:43:17;11.33;;;6.37;;
20124;SDS011;10223;50.862;4.360;2023-04-03T03:45:45;10.67;;;6.03;;
20124;SDS011;10223;50.862;4.360;2023-04-03T03:48:16;12.23;;;6.83;;
20124;SDS011;10223;50.862;4.360;2023-04-03T03:50:44;11.60;;;6.60;;
20124;SDS011;10223;50.862;4.360;2023-04-03T03:53:11;11.53;;;6.80;;
20124;SDS011;10223;50.862;4.360;2023-04-03T03:55:38;9.37;;;6.80;;
20124;SDS011;10223;50.862;4.360;2023-04-03T03:58:05;11.60;;;6.47;;
20124;SDS011;10223;50.862;4.360;2023-04-03T04:00:32;10.70;;;6.67;;
20124;SDS011;10223;50.862;4.360;2023-04-03T04:02:59;9.23;;;6.30;;
20124;SDS011;10223;50.862;4.360;2023-04-03T04:05:26;12.07;;;6.70;;
20124;SDS011;10223;50.862;4.360;2023-04-03T04:07:54;9.90;;;5.97;;
20124;SDS011;10223;50.862;4.360;2023-04-03T04:10:21;11.43;;;7.43;;
20124;SDS011;10223;50.862;4.360;2023-04-03T04:12:48;10.83;;;6.50;;
20124;SDS011;10223;50.862;4.360;2023-04-03T04:15:16;8.93;;;5.50;;
20124;SDS011;10223;50.862;4.360;2023-04-03T04:17:43;12.40;;;6.67;;
20124;SDS011;10223;50.862;4.360;2023-04-03T04:20:10;10.90;;;6.27;;
20124;SDS011;10223;50.862;4.360;2023-04-03T04:22:37;12.47;;;6.37;;
20124;SDS011;10223;50.862;4.360;2023-04-03T04:25:06;11.17;;;7.00;;
20124;SDS011;10223;50.862;4.360;2023-04-03T04:27:34;11.80;;;6.53;;
20124;SDS011;10223;50.862;4.360;2023-04-03T04:30:02;13.57;;;6.67;;
20124;SDS011;10223;50.862;4.360;2023-04-03T04:32:29;12.40;;;8.20;;
20124;SDS011;10223;50.862;4.360;2023-04-03T04:34:57;13.93;;;8.03;;
20124;SDS011;10223;50.862;4.360;2023-04-03T04:37:23;17.43;;;7.83;;
20124;SDS011;10223;50.862;4.360;2023-04-03T04:39:50;10.73;;;7.47;;
20124;SDS011;10223;50.862;4.360;2023-04-03T04:42:19;14.10;;;7.03;;
20124;SDS011;10223;50.862;4.360;2023-04-03T04:44:45;14.93;;;6.90;;
20124;SDS011;10223;50.862;4.360;2023-04-03T04:47:12;13.13;;;7.03;;
20124;SDS011;10223;50.862;4.360;2023-04-03T04:49:40;9.90;;;6.77;;
20124;SDS011;10223;50.862;4.360;2023-04-03T04:52:06;14.10;;;7.70;;
20124;SDS011;10223;50.862;4.360;2023-04-03T04:54:33;15.93;;;7.20;;
20124;SDS011;10223;50.862;4.360;2023-04-03T04:57:00;11.00;;;6.30;;
20124;SDS011;10223;50.862;4.360;2023-04-03T04:59:29;12.20;;;7.20;;
20124;SDS011;10223;50.862;4.360;2023-04-03T05:01:56;9.50;;;6.67;;
20124;SDS011;10223;50.862;4.360;2023-04-03T05:04:23;17.17;;;7.67;;
20124;SDS011;10223;50.862;4.360;2023-04-03T05:06:50;12.27;;;7.07;;
20124;SDS011;10223;50.862;4.360;2023-04-03T05:09:17;10.70;;;7.13;;
20124;SDS011;10223;50.862;4.360;2023-04-03T05:11:45;13.73;;;6.87;;
20124;SDS011;10223;50.862;4.360;2023-04-03T05:14:12;11.23;;;6.63;;
20124;SDS011;10223;50.862;4.360;2023-04-03T05:16:40;10.17;;;6.80;;
20124;SDS011;10223;50.862;4.360;2023-04-03T05:19:07;11.80;;;7.90;;
20124;SDS011;10223;50.862;4.360;2023-04-03T05:21:34;12.77;;;7.93;;
20124;SDS011;10223;50.862;4.360;2023-04-03T05:24:01;12.00;;;7.47;;
20124;SDS011;10223;50.862;4.360;2023-04-03T05:26:28;13.20;;;7.40;;
20124;SDS011;10223;50.862;4.360;2023-04-03T05:28:56;13.27;;;7.27;;
20124;SDS011;10223;50.862;4.360;2023-04-03T05:31:22;12.73;;;7.67;;
20124;SDS011;10223;50.862;4.360;2023-04-03T05:33:51;14.63;;;8.03;;
20124;SDS011;10223;50.862;4.360;2023-04-03T05:36:18;12.23;;;8.10;;
20124;SDS011;10223;50.862;4.360;2023-04-03T05:38:45;13.23;;;7.40;;
20124;SDS011;10223;50.862;4.360;2023-04-03T05:41:12;16.00;;;8.40;;
20124;SDS011;10223;50.862;4.360;2023-04-03T05:43:39;12.57;;;7.90;;
20124;SDS011;10223;50.862;4.360;2023-04-03T05:46:08;13.30;;;8.70;;
20124;SDS011;10223;50.862;4.360;2023-04-03T05:48:36;16.57;;;9.17;;
20124;SDS011;10223;50.862;4.360;2023-04-03T05:51:04;20.17;;;8.77;;
20124;SDS011;10223;50.862;4.360;2023-04-03T05:53:33;15.13;;;8.60;;
20124;SDS011;10223;50.862;4.360;2023-04-03T05:56:02;12.77;;;7.93;;
20124;SDS011;10223;50.862;4.360;2023-04-03T05:58:29;13.07;;;8.23;;
20124;SDS011;10223;50.862;4.360;2023-04-03T06:00:56;17.00;;;9.07;;
20124;SDS011;10223;50.862;4.360;2023-04-03T06:03:23;14.00;;;9.07;;
20124;SDS011;10223;50.862;4.360;2023-04-03T06:05:51;16.33;;;8.97;;
20124;SDS011;10223;50.862;4.360;2023-04-03T06:08:19;15.97;;;9.10;;
20124;SDS011;10223;50.862;4.360;2023-04-03T06:10:46;13.37;;;8.47;;
20124;SDS011;10223;50.862;4.360;2023-04-03T06:13:13;17.80;;;9.37;;
20124;SDS011;10223;50.862;4.360;2023-04-03T06:15:40;15.43;;;9.93;;
20124;SDS011;10223;50.862;4.360;2023-04-03T06:18:07;19.83;;;9.03;;
20124;SDS011;10223;50.862;4.360;2023-04-03T06:20:34;16.40;;;9.60;;
20124;SDS011;10223;50.862;4.360;2023-04-03T06:23:01;15.67;;;8.80;;
20124;SDS011;10223;50.862;4.360;2023-04-03T06:25:29;15.63;;;9.07;;
20124;SDS011;10223;50.862;4.360;2023-04-03T06:27:56;16.77;;;9.23;;
20124;SDS011;10223;50.862;4.360;2023-04-03T06:30:23;12.80;;;9.17;;
20124;SDS011;10223;50.862;4.360;2023-04-03T06:32:50;15.97;;;9.90;;
20124;SDS011;10223;50.862;4.360;2023-04-03T06:35:18;18.23;;;8.93;;
20124;SDS011;10223;50.862;4.360;2023-04-03T06:37:45;16.93;;;9.03;;
20124;SDS011;10223;50.862;4.360;2023-04-03T06:40:14;16.17;;;9.80;;
20124;SDS011;10223;50.862;4.360;2023-04-03T06:42:47;18.00;;;10.50;;
20124;SDS011;10223;50.862;4.360;2023-04-03T06:45:14;16.70;;;9.57;;
20124;SDS011;10223;50.862;4.360;2023-04-03T06:47:41;14.87;;;9.47;;
20124;SDS011;10223;50.862;4.360;2023-04-03T06:50:09;14.73;;;9.40;;
20124;SDS011;10223;50.862;4.360;2023-04-03T06:52:39;20.37;;;9.83;;
20124;SDS011;10223;50.862;4.360;2023-04-03T06:55:06;17.23;;;9.93;;
20124;SDS011;10223;50.862;4.360;2023-04-03T06:57:34;18.27;;;10.00;;
20124;SDS011;10223;50.862;4.360;2023-04-03T07:00:03;23.67;;;10.90;;
20124;SDS011;10223;50.862;4.360;2023-04-03T07:02:32;20.50;;;10.20;;
20124;SDS011;10223;50.862;4.360;2023-04-03T07:04:59;15.47;;;10.27;;
20124;SDS011;10223;50.862;4.360;2023-04-03T07:07:26;19.87;;;9.37;;
20124;SDS011;10223;50.862;4.360;2023-04-03T07:09:52;18.17;;;9.40;;
20124;SDS011;10223;50.862;4.360;2023-04-03T07:12:19;13.17;;;8.90;;
20124;SDS011;10223;50.862;4.360;2023-04-03T07:14:46;14.37;;;8.87;;
20124;SDS011;10223;50.862;4.360;2023-04-03T07:17:15;12.70;;;8.63;;
20124;SDS011;10223;50.862;4.360;2023-04-03T07:19:42;13.20;;;7.57;;
20124;SDS011;10223;50.862;4.360;2023-04-03T07:22:09;15.10;;;8.97;;
20124;SDS011;10223;50.862;4.360;2023-04-03T07:24:36;10.83;;;7.43;;
20124;SDS011;10223;50.862;4.360;2023-04-03T07:27:03;13.27;;;7.60;;
20124;SDS011;10223;50.862;4.360;2023-04-03T07:29:30;11.83;;;6.97;;
20124;SDS011;10223;50.862;4.360;2023-04-03T07:31:57;15.07;;;7.70;;
20124;SDS011;10223;50.862;4.360;2023-04-03T07:34:26;16.33;;;7.93;;
20124;SDS011;10223;50.862;4.360;2023-04-03T07:36:53;12.03;;;7.60;;
20124;SDS011;10223;50.862;4.360;2023-04-03T07:39:20;12.73;;;7.40;;
20124;SDS011;10223;50.862;4.360;2023-04-03T07:41:47;11.33;;;6.43;;
20124;SDS011;10223;50.862;4.360;2023-04-03T07:44:14;11.90;;;6.93;;
20124;SDS011;10223;50.862;4.360;2023-04-03T07:46:41;9.57;;;7.00;;
20124;SDS011;10223;50.862;4.360;2023-04-03T07:49:08;11.70;;;6.60;;
20124;SDS011;10223;50.862;4.360;2023-04-03T07:51:36;12.73;;;6.97;;
20124;SDS011;10223;50.862;4.360;2023-04-03T07:54:04;9.73;;;6.43;;
20124;SDS011;10223;50.862;4.360;2023-04-03T07:56:31;10.60;;;6.67;;
20124;SDS011;10223;50.862;4.360;2023-04-03T07:58:58;12.63;;;6.87;;
20124;SDS011;10223;50.862;4.360;2023-04-03T08:01:25;12.30;;;6.43;;
20124;SDS011;10223;50.862;4.360;2023-04-03T08:03:52;11.63;;;6.53;;
20124;SDS011;10223;50.862;4.360;2023-04-03T08:06:19;13.50;;;6.43;;
20124;SDS011;10223;50.862;4.360;2023-04-03T08:08:47;9.63;;;6.10;;
20124;SDS011;10223;50.862;4.360;2023-04-03T08:11:14;9.97;;;6.67;;
20124;SDS011;10223;50.862;4.360;2023-04-03T08:13:41;8.70;;;5.97;;
20124;SDS011;10223;50.862;4.360;2023-04-03T08:16:09;10.43;;;6.33;;
20124;SDS011;10223;50.862;4.360;2023-04-03T08:18:37;10.20;;;6.13;;
20124;SDS011;10223;50.862;4.360;2023-04-03T08:21:05;11.33;;;7.37;;
20124;SDS011;10223;50.862;4.360;2023-04-03T08:23:33;8.10;;;6.13;;
20124;SDS011;10223;50.862;4.360;2023-04-03T08:26:06;9.30;;;5.50;;
20124;SDS011;10223;50.862;4.360;2023-04-03T08:28:34;11.20;;;6.07;;
20124;SDS011;10223;50.862;4.360;2023-04-03T08:31:04;12.97;;;6.10;;
20124;SDS011;10223;50.862;4.360;2023-04-03T08:33:32;11.33;;;5.97;;
20124;SDS011;10223;50.862;4.360;2023-04-03T08:36:01;9.03;;;5.53;;
20124;SDS011;10223;50.862;4.360;2023-04-03T08:38:29;8.87;;;5.23;;
20124;SDS011;10223;50.862;4.360;2023-04-03T08:41:00;9.97;;;5.03;;
20124;SDS011;10223;50.862;4.360;2023-04-03T08:43:33;10.40;;;5.63;;
20124;SDS011;10223;50.862;4.360;2023-04-03T08:46:05;8.73;;;5.47;;
20124;SDS011;10223;50.862;4.360;2023-04-03T08:48:38;13.93;;;6.03;;
20124;SDS011;10223;50.862;4.360;2023-04-03T08:51:10;8.27;;;5.77;;
20124;SDS011;10223;50.862;4.360;2023-04-03T08:53:42;10.47;;;5.50;;
20124;SDS011;10223;50.862;4.360;2023-04-03T08:56:15;9.97;;;5.77;;
20124;SDS011;10223;50.862;4.360;2023-04-03T08:58:46;8.17;;;5.70;;
20124;SDS011;10223;50.862;4.360;2023-04-03T09:01:19;7.57;;;5.47;;
20124;SDS011;10223;50.862;4.360;2023-04-03T09:03:47;7.97;;;4.93;;
20124;SDS011;10223;50.862;4.360;2023-04-03T09:06:15;10.87;;;5.23;;
20124;SDS011;10223;50.862;4.360;2023-04-03T09:08:46;7.27;;;4.90;;
20124;SDS011;10223;50.862;4.360;2023-04-03T09:11:20;7.13;;;4.33;;
20124;SDS011;10223;50.862;4.360;2023-04-03T09:13:54;6.60;;;4.13;;
20124;SDS011;10223;50.862;4.360;2023-04-03T09:16:28;7.30;;;4.90;;
20124;SDS011;10223;50.862;4.360;2023-04-03T09:19:04;7.90;;;4.30;;
20124;SDS011;10223;50.862;4.360;2023-04-03T09:21:41;7.53;;;4.40;;
20124;SDS011;10223;50.862;4.360;2023-04-03T09:24:09;12.77;;;4.13;;
20124;SDS011;10223;50.862;4.360;2023-04-03T09:26:39;6.70;;;4.17;;
20124;SDS011;10223;50.862;4.360;2023-04-03T09:29:13;7.73;;;3.90;;
20124;SDS011;10223;50.862;4.360;2023-04-03T09:31:47;7.33;;;3.50;;
20124;SDS011;10223;50.862;4.360;2023-04-03T09:34:16;4.97;;;3.37;;
20124;SDS011;10223;50.862;4.360;2023-04-03T09:36:49;7.10;;;3.03;;
20124;SDS011;10223;50.862;4.360;2023-04-03T09:39:18;7.83;;;3.30;;
20124;SDS011;10223;50.862;4.360;2023-04-03T09:41:59;5.10;;;2.93;;
20124;SDS011;10223;50.862;4.360;2023-04-03T09:44:30;7.93;;;2.73;;
20124;SDS011;10223;50.862;4.360;2023-04-03T09:46:59;5.60;;;2.87;;
20124;SDS011;10223;50.862;4.360;2023-04-03T09:49:43;6.73;;;2.43;;
20124;SDS011;10223;50.862;4.360;2023-04-03T09:52:18;5.10;;;2.73;;
20124;SDS011;10223;50.862;4.360;2023-04-03T09:54:45;5.90;;;2.80;;
20124;SDS011;10223;50.862;4.360;2023-04-03T09:57:13;5.00;;;2.40;;
20124;SDS011;10223;50.862;4.360;2023-04-03T09:59:43;5.87;;;2.87;;
20124;SDS011;10223;50.862;4.360;2023-04-03T10:02:21;4.60;;;2.77;;
20124;SDS011;10223;50.862;4.360;2023-04-03T10:04:57;6.10;;;2.90;;
20124;SDS011;10223;50.862;4.360;2023-04-03T10:07:28;8.10;;;2.63;;
20124;SDS011;10223;50.862;4.360;2023-04-03T10:09:58;5.47;;;2.80;;
20124;SDS011;10223;50.862;4.360;2023-04-03T10:12:26;4.53;;;2.33;;
20124;SDS011;10223;50.862;4.360;2023-04-03T10:14:55;5.13;;;2.30;;
20124;SDS011;10223;50.862;4.360;2023-04-03T10:17:26;6.13;;;2.23;;
20124;SDS011;10223;50.862;4.360;2023-04-03T10:20:10;7.23;;;2.70;;
20124;SDS011;10223;50.862;4.360;2023-04-03T10:22:53;7.50;;;2.97;;
20124;SDS011;10223;50.862;4.360;2023-04-03T10:25:28;7.40;;;2.57;;
20124;SDS011;10223;50.862;4.360;2023-04-03T10:28:02;4.90;;;2.90;;
20124;SDS011;10223;50.862;4.360;2023-04-03T10:30:39;5.60;;;2.37;;
20124;SDS011;10223;50.862;4.360;2023-04-03T10:33:23;5.23;;;1.97;;
20124;SDS011;10223;50.862;4.360;2023-04-03T10:36:06;3.83;;;1.90;;
20124;SDS011;10223;50.862;4.360;2023-04-03T10:38:40;6.27;;;2.30;;
20124;SDS011;10223;50.862;4.360;2023-04-03T10:41:16;4.27;;;2.30;;
20124;SDS011;10223;50.862;4.360;2023-04-03T10:43:50;4.17;;;2.17;;
20124;SDS011;10223;50.862;4.360;2023-04-03T10:46:28;6.40;;;2.00;;
20124;SDS011;10223;50.862;4.360;2023-04-03T10:49:05;3.90;;;2.00;;
20124;SDS011;10223;50.862;4.360;2023-04-03T10:51:42;7.47;;;2.90;;
20124;SDS011;10223;50.862;4.360;2023-04-03T10:54:13;3.10;;;1.90;;
20124;SDS011;10223;50.862;4.360;2023-04-03T10:56:47;4.50;;;2.57;;
20124;SDS011;10223;50.862;4.360;2023-04-03T10:59:19;5.23;;;2.00;;
20124;SDS011;10223;50.862;4.360;2023-04-03T11:01:53;4.20;;;2.10;;
20124;SDS011;10223;50.862;4.360;2023-04-03T11:04:22;4.73;;;1.60;;
20124;SDS011;10223;50.862;4.360;2023-04-03T11:06:56;4.00;;;1.60;;
20124;SDS011;10223;50.862;4.360;2023-04-03T11:09:26;3.83;;;1.60;;
20124;SDS011;10223;50.862;4.360;2023-04-03T11:11:56;4.30;;;1.80;;
20124;SDS011;10223;50.862;4.360;2023-04-03T11:14:28;5.23;;;1.47;;
20124;SDS011;10223;50.862;4.360;2023-04-03T11:17:01;7.30;;;3.00;;
20124;SDS011;10223;50.862;4.360;2023-04-03T11:19:36;4.37;;;1.97;;
20124;SDS011;10223;50.862;4.360;2023-04-03T11:22:10;5.60;;;2.00;;
20124;SDS011;10223;50.862;4.360;2023-04-03T11:24:43;4.00;;;1.77;;
20124;SDS011;10223;50.862;4.360;2023-04-03T11:27:19;4.07;;;1.80;;
20124;SDS011;10223;50.862;4.360;2023-04-03T11:29:50;6.80;;;2.13;;
20124;SDS011;10223;50.862;4.360;2023-04-03T11:32:29;6.63;;;2.20;;
20124;SDS011;10223;50.862;4.360;2023-04-03T11:35:08;7.97;;;2.23;;
20124;SDS011;10223;50.862;4.360;2023-04-03T11:37:37;8.80;;;2.57;;
20124;SDS011;10223;50.862;4.360;2023-04-03T11:40:07;5.37;;;1.77;;
20124;SDS011;10223;50.862;4.360;2023-04-03T11:42:46;3.67;;;2.00;;
20124;SDS011;10223;50.862;4.360;2023-04-03T11:45:24;5.87;;;1.80;;
20124;SDS011;10223;50.862;4.360;2023-04-03T11:47:58;6.33;;;1.50;;
20124;SDS011;10223;50.862;4.360;2023-04-03T11:50:30;5.27;;;1.47;;
20124;SDS011;10223;50.862;4.360;2023-04-03T12:01:43;3.73;;;1.50;;
20124;SDS011;10223;50.862;4.360;2023-04-03T12:04:14;6.37;;;1.67;;
20124;SDS011;10223;50.862;4.360;2023-04-03T12:06:50;4.83;;;1.87;;
20124;SDS011;10223;50.862;4.360;2023-04-03T12:12:45;7.00;;;2.70;;
20124;SDS011;10223;50.862;4.360;2023-04-03T12:21:11;5.77;;;1.73;;
20124;SDS011;10223;50.862;4.360;2023-04-03T12:26:26;3.27;;;1.63;;
20124;SDS011;10223;50.862;4.360;2023-04-03T12:28:56;6.70;;;1.50;;
20124;SDS011;10223;50.862;4.360;2023-04-03T12:31:25;2.33;;;1.30;;
20124;SDS011;10223;50.862;4.360;2023-04-03T12:34:10;4.40;;;1.63;;
20124;SDS011;10223;50.862;4.360;2023-04-03T12:36:54;2.30;;;1.50;;
20124;SDS011;10223;50.862;4.360;2023-04-03T12:45:40;3.53;;;1.67;;
20124;SDS011;10223;50.862;4.360;2023-04-03T12:48:12;2.63;;;1.40;;
20124;SDS011;10223;50.862;4.360;2023-04-03T12:50:42;6.43;;;2.20;;
20124;SDS011;10223;50.862;4.360;2023-04-03T12:53:13;8.63;;;3.03;;
20124;SDS011;10223;50.862;4.360;2023-04-03T12:55:44;5.17;;;1.43;;
20124;SDS011;10223;50.862;4.360;2023-04-03T12:58:15;4.67;;;1.70;;
20124;SDS011;10223;50.862;4.360;2023-04-03T13:00:48;3.63;;;1.97;;
20124;SDS011;10223;50.862;4.360;2023-04-03T13:03:26;3.37;;;1.50;;
20124;SDS011;10223;50.862;4.360;2023-04-03T13:05:54;3.43;;;1.27;;
20124;SDS011;10223;50.862;4.360;2023-04-03T13:08:24;4.10;;;1.70;;
20124;SDS011;10223;50.862;4.360;2023-04-03T13:10:53;3.27;;;1.53;;
20124;SDS011;10223;50.862;4.360;2023-04-03T13:13:24;5.23;;;1.97;;
20124;SDS011;10223;50.862;4.360;2023-04-03T13:15:51;3.70;;;1.40;;
20124;SDS011;10223;50.862;4.360;2023-04-03T13:18:28;6.43;;;1.42;;
20124;SDS011;10223;50.862;4.360;2023-04-03T13:20:57;2.63;;;1.40;;
20124;SDS011;10223;50.862;4.360;2023-04-03T13:23:31;2.70;;;1.30;;
20124;SDS011;10223;50.862;4.360;2023-04-03T13:26:00;6.43;;;1.50;;
20124;SDS011;10223;50.862;4.360;2023-04-03T13:28:29;4.70;;;1.70;;
20124;SDS011;10223;50.862;4.360;2023-04-03T13:31:02;2.83;;;1.42;;
20124;SDS011;10223;50.862;4.360;2023-04-03T13:33:35;4.32;;;1.30;;
20124;SDS011;10223;50.862;4.360;2023-04-03T13:36:04;3.03;;;1.30;;
20124;SDS011;10223;50.862;4.360;2023-04-03T13:38:36;2.75;;;1.42;;
20124;SDS011;10223;50.862;4.360;2023-04-03T13:41:05;4.05;;;1.80;;
20124;SDS011;10223;50.862;4.360;2023-04-03T13:43:47;3.70;;;1.30;;
20124;SDS011;10223;50.862;4.360;2023-04-03T13:46:23;3.65;;;1.50;;
20124;SDS011;10223;50.862;4.360;2023-04-03T13:48:53;6.90;;;1.70;;
20124;SDS011;10223;50.862;4.360;2023-04-03T13:51:22;3.67;;;1.77;;
20124;SDS011;10223;50.862;4.360;2023-04-03T13:53:54;3.60;;;1.60;;
20124;SDS011;10223;50.862;4.360;2023-04-03T13:56:25;4.60;;;1.58;;
20124;SDS011;10223;50.862;4.360;2023-04-03T13:58:59;3.17;;;1.70;;
20124;SDS011;10223;50.862;4.360;2023-04-03T14:01:34;5.20;;;2.00;;
20124;SDS011;10223;50.862;4.360;2023-04-03T14:04:13;6.65;;;3.45;;
20124;SDS011;10223;50.862;4.360;2023-04-03T14:06:42;5.15;;;1.83;;
20124;SDS011;10223;50.862;4.360;2023-04-03T14:09:11;5.40;;;1.92;;
20124;SDS011;10223;50.862;4.360;2023-04-03T14:11:39;4.18;;;1.92;;
20124;SDS011;10223;50.862;4.360;2023-04-03T14:14:10;6.72;;;2.15;;
20124;SDS011;10223;50.862;4.360;2023-04-03T14:16:40;4.68;;;1.80;;
20124;SDS011;10223;50.862;4.360;2023-04-03T14:19:13;5.45;;;1.67;;
20124;SDS011;10223;50.862;4.360;2023-04-03T14:21:45;4.40;;;1.63;;
20124;SDS011;10223;50.862;4.360;2023-04-03T14:24:14;6.05;;;2.33;;
20124;SDS011;10223;50.862;4.360;2023-04-03T14:26:41;5.47;;;2.42;;
20124;SDS011;10223;50.862;4.360;2023-04-03T14:29:10;3.15;;;1.67;;
20124;SDS011;10223;50.862;4.360;2023-04-03T14:31:38;4.50;;;1.70;;
20124;SDS011;10223;50.862;4.360;2023-04-03T14:34:05;3.05;;;1.80;;
20124;SDS011;10223;50.862;4.360;2023-04-03T14:36:32;3.08;;;1.80;;
20124;SDS011;10223;50.862;4.360;2023-04-03T14:38:59;4.00;;;1.88;;
20124;SDS011;10223;50.862;4.360;2023-04-03T14:41:28;4.32;;;1.83;;
20124;SDS011;10223;50.862;4.360;2023-04-03T14:43:55;5.57;;;1.88;;
20124;SDS011;10223;50.862;4.360;2023-04-03T14:46:24;4.03;;;1.75;;
20124;SDS011;10223;50.862;4.360;2023-04-03T14:48:54;6.65;;;1.80;;
20124;SDS011;10223;50.862;4.360;2023-04-03T14:51:21;6.47;;;2.08;;
20124;SDS011;10223;50.862;4.360;2023-04-03T14:53:48;5.05;;;1.95;;
20124;SDS011;10223;50.862;4.360;2023-04-03T14:56:17;4.75;;;1.70;;
20124;SDS011;10223;50.862;4.360;2023-04-03T14:58:48;8.52;;;1.58;;
20124;SDS011;10223;50.862;4.360;2023-04-03T15:01:17;4.60;;;1.50;;
20124;SDS011;10223;50.862;4.360;2023-04-03T15:03:45;5.22;;;1.63;;
20124;SDS011;10223;50.862;4.360;2023-04-03T15:06:12;7.10;;;1.63;;
20124;SDS011;10223;50.862;4.360;2023-04-03T15:08:41;4.07;;;1.52;;
20124;SDS011;10223;50.862;4.360;2023-04-03T15:11:09;2.63;;;1.30;;
20124;SDS011;10223;50.862;4.360;2023-04-03T15:13:36;4.60;;;1.30;;
20124;SDS011;10223;50.862;4.360;2023-04-03T15:16:05;6.28;;;1.80;;
20124;SDS011;10223;50.862;4.360;2023-04-03T15:18:38;5.97;;;1.60;;
20124;SDS011;10223;50.862;4.360;2023-04-03T15:21:05;3.78;;;1.80;;
20124;SDS011;10223;50.862;4.360;2023-04-03T15:23:32;3.85;;;1.45;;
20124;SDS011;10223;50.862;4.360;2023-04-03T15:25:59;3.28;;;1.40;;